Time;durP1;ratioP1;P1;durP2;ratioP2;P2;SDS_P1;SDS_P2;PMS_P1;PMS_P2;Temp;Humidity;BMP_temperature;BMP_pressure;BME280_temperature;BME280_humidity;BME280_pressure;Samples;Min_cycle;Max_cycle;Signal;HPM_P1;HPM_P2
2022/10/25 00:01:25;;;;;;;4.47;1.10;;;15.40;99.90;;;;;;5033504;28;20112;-72
2022/10/25 00:03:50;;;;;;;8.30;1.52;;;15.50;99.90;;;;;;5033360;28;20048;-72
2022/10/25 00:06:16;;;;;;;4.53;1.70;;;15.40;99.90;;;;;;5033105;28;20072;-71
2022/10/25 00:08:42;;;;;;;6.38;1.30;;;15.40;99.90;;;;;;5033147;28;20052;-71
2022/10/25 00:11:14;;;;;;;7.28;1.40;;;15.40;99.90;;;;;;5033189;28;20038;-71
2022/10/25 00:13:39;;;;;;;5.68;1.33;;;15.50;99.90;;;;;;5033172;28;20112;-71
2022/10/25 00:16:05;;;;;;;6.32;1.30;;;15.50;99.90;;;;;;5033407;28;20108;-71
2022/10/25 00:18:31;;;;;;;9.25;1.77;;;15.50;99.90;;;;;;5033075;28;20031;-72
2022/10/25 00:20:56;;;;;;;7.68;1.73;;;15.50;99.90;;;;;;5033093;28;20489;-72
2022/10/25 00:23:22;;;;;;;6.13;1.45;;;15.50;99.90;;;;;;5033001;28;20029;-72
2022/10/25 00:25:47;;;;;;;8.90;2.03;;;15.50;99.90;;;;;;5033399;28;20492;-72
2022/10/25 00:28:13;;;;;;;6.80;1.58;;;15.50;99.90;;;;;;5036347;28;20077;-70
2022/10/25 00:30:38;;;;;;;5.75;1.50;;;15.50;99.90;;;;;;5033588;28;20029;-72
2022/10/25 00:33:04;;;;;;;9.23;1.73;;;15.50;99.90;;;;;;5036433;28;20030;-71
2022/10/25 00:35:30;;;;;;;5.05;1.70;;;15.50;99.90;;;;;;5037259;28;20029;-72
2022/10/25 00:37:55;;;;;;;6.65;1.58;;;15.50;99.90;;;;;;5036843;28;20036;-72
2022/10/25 00:40:21;;;;;;;8.93;1.80;;;15.50;99.90;;;;;;5037090;28;20036;-72
2022/10/25 00:42:46;;;;;;;8.05;1.98;;;15.50;99.90;;;;;;5037216;28;20496;-72
2022/10/25 00:45:22;;;;;;;7.25;1.92;;;15.60;99.90;;;;;;5036749;28;20084;-72
2022/10/25 00:47:57;;;;;;;9.80;2.60;;;15.50;99.90;;;;;;5036947;28;20076;-72
2022/10/25 00:50:56;;;;;;;9.55;2.40;;;15.50;99.90;;;;;;5036609;28;20076;-72
2022/10/25 00:53:27;;;;;;;9.65;2.40;;;15.50;99.90;;;;;;5024915;28;20053;-72
2022/10/25 00:55:58;;;;;;;7.38;2.13;;;15.50;99.90;;;;;;5036679;28;20030;-72
2022/10/25 00:58:26;;;;;;;10.95;2.95;;;15.50;99.90;;;;;;5036668;28;20029;-72
2022/10/25 01:00:51;;;;;;;6.72;2.45;;;15.50;99.90;;;;;;5036233;28;20116;-72
2022/10/25 01:03:21;;;;;;;10.40;2.67;;;15.50;99.90;;;;;;5036806;28;20057;-72
2022/10/25 01:05:47;;;;;;;6.70;2.60;;;15.50;99.90;;;;;;5036612;28;20031;-72
2022/10/25 01:08:14;;;;;;;9.73;2.80;;;15.50;99.90;;;;;;5036654;28;20036;-72
2022/10/25 01:10:40;;;;;;;8.82;2.72;;;15.50;99.90;;;;;;5036295;28;20039;-72
2022/10/25 01:13:05;;;;;;;10.48;3.05;;;15.50;99.90;;;;;;5036370;28;20108;-72
2022/10/25 01:15:50;;;;;;;9.52;3.10;;;15.50;99.90;;;;;;5036531;28;20044;-72
2022/10/25 01:18:42;;;;;;;10.10;2.85;;;15.50;99.90;;;;;;5036442;28;20029;-72
2022/10/25 01:21:41;;;;;;;10.35;2.97;;;15.50;99.90;;;;;;5036446;28;20029;-72
2022/10/25 01:24:31;;;;;;;6.53;2.97;;;15.50;99.90;;;;;;5036475;28;20457;-71
2022/10/25 01:27:10;;;;;;;7.75;2.75;;;15.60;99.90;;;;;;5036029;28;20033;-72
2022/10/25 01:30:14;;;;;;;9.95;3.05;;;15.60;99.90;;;;;;5035885;28;20405;-72
2022/10/25 01:32:45;;;;;;;10.63;3.20;;;15.60;99.90;;;;;;5031200;28;20118;-72
2022/10/25 01:35:31;;;;;;;11.10;3.35;;;15.60;99.90;;;;;;5035970;28;20040;-72
2022/10/25 01:37:59;;;;;;;12.20;3.42;;;15.60;99.90;;;;;;5035930;28;20034;-72
2022/10/25 01:40:36;;;;;;;12.85;3.33;;;15.60;99.90;;;;;;5035727;28;20401;-72
2022/10/25 01:43:20;;;;;;;10.18;2.75;;;15.60;99.90;;;;;;5035822;28;20029;-72
2022/10/25 01:45:53;;;;;;;9.02;2.90;;;15.60;99.90;;;;;;5035506;28;20112;-71
2022/10/25 01:48:26;;;;;;;10.50;2.90;;;15.60;99.90;;;;;;5035717;28;20113;-71
2022/10/25 01:50:51;;;;;;;8.68;2.88;;;15.60;99.90;;;;;;5035644;28;20030;-71
2022/10/25 01:53:17;;;;;;;9.73;2.78;;;15.60;99.90;;;;;;5035764;28;20040;-71
2022/10/25 01:55:51;;;;;;;9.10;3.08;;;15.50;99.90;;;;;;5035575;28;20385;-72
2022/10/25 01:58:23;;;;;;;14.15;3.55;;;15.60;99.90;;;;;;5035657;28;20029;-72
2022/10/25 02:01:50;;;;;;;7.05;2.55;;;15.60;99.90;;;;;;5035607;28;20067;-72
2022/10/25 02:04:36;;;;;;;11.13;3.00;;;15.60;99.90;;;;;;5013426;28;20493;-72
2022/10/25 02:07:27;;;;;;;13.50;2.95;;;15.60;99.90;;;;;;5033520;28;20121;-72
2022/10/25 02:10:01;;;;;;;14.57;2.47;;;15.60;99.90;;;;;;5035647;28;20029;-72
2022/10/25 02:12:40;;;;;;;9.18;2.53;;;15.60;99.90;;;;;;5035373;28;20049;-72
2022/10/25 02:15:10;;;;;;;14.15;3.08;;;15.60;99.90;;;;;;5035345;28;20028;-72
2022/10/25 02:17:52;;;;;;;10.52;2.60;;;15.60;99.90;;;;;;5035530;28;20144;-72
2022/10/25 02:20:19;;;;;;;12.63;2.57;;;15.60;99.90;;;;;;5035641;28;20030;-71
2022/10/25 02:22:45;;;;;;;9.45;2.65;;;15.60;99.90;;;;;;5035906;28;20022;-72
2022/10/25 02:25:12;;;;;;;14.82;2.35;;;15.50;99.90;;;;;;5035124;28;20100;-72
2022/10/25 02:27:39;;;;;;;10.00;2.38;;;15.50;99.90;;;;;;5035308;28;20030;-72
2022/10/25 02:30:06;;;;;;;14.13;2.72;;;15.50;99.90;;;;;;5034712;28;20115;-72
2022/10/25 02:32:32;;;;;;;13.18;2.60;;;15.60;99.90;;;;;;5034866;28;20079;-72
2022/10/25 02:34:57;;;;;;;15.70;2.97;;;15.60;99.90;;;;;;5034561;28;20060;-72
2022/10/25 02:37:23;;;;;;;13.40;3.30;;;15.60;99.90;;;;;;5034670;28;20045;-72
2022/10/25 02:39:50;;;;;;;14.43;2.80;;;15.60;99.90;;;;;;5034814;28;20053;-72
2022/10/25 02:42:15;;;;;;;12.55;2.72;;;15.60;99.90;;;;;;5034711;28;20496;-72
2022/10/25 02:44:41;;;;;;;12.80;2.80;;;15.50;99.90;;;;;;5034517;28;20065;-72
2022/10/25 02:47:07;;;;;;;14.85;3.05;;;15.60;99.90;;;;;;5034322;28;20056;-72
2022/10/25 02:49:32;;;;;;;17.77;3.45;;;15.50;99.90;;;;;;5034524;28;20028;-72
2022/10/25 02:51:58;;;;;;;16.65;3.60;;;15.50;99.90;;;;;;5034486;28;20033;-72
2022/10/25 02:54:24;;;;;;;12.82;3.60;;;15.50;99.90;;;;;;5033686;28;20088;-72
2022/10/25 02:56:51;;;;;;;13.52;3.28;;;15.40;99.90;;;;;;5034524;28;20120;-72
2022/10/25 02:59:18;;;;;;;12.05;4.07;;;15.50;99.90;;;;;;5034347;28;20052;-72
2022/10/25 03:01:47;;;;;;;12.88;3.53;;;15.50;99.90;;;;;;5034497;28;20064;-72
2022/10/25 03:04:13;;;;;;;13.73;4.10;;;15.50;99.90;;;;;;5034499;28;20025;-72
2022/10/25 03:06:39;;;;;;;9.43;3.80;;;15.50;99.90;;;;;;5033900;28;20051;-73
2022/10/25 03:09:05;;;;;;;14.10;4.00;;;15.50;99.90;;;;;;5034274;28;20048;-72
2022/10/25 03:11:30;;;;;;;17.95;4.32;;;15.40;99.90;;;;;;5034297;28;20477;-72
2022/10/25 03:13:56;;;;;;;17.42;4.55;;;15.40;99.90;;;;;;5034281;28;20021;-72
2022/10/25 03:16:21;;;;;;;16.08;4.10;;;15.40;99.90;;;;;;5034490;28;20083;-71
2022/10/25 03:18:47;;;;;;;15.73;4.45;;;15.40;99.90;;;;;;5037822;28;20021;-72
2022/10/25 03:21:13;;;;;;;14.25;4.22;;;15.40;99.90;;;;;;5033894;28;20040;-72
2022/10/25 03:23:38;;;;;;;16.23;4.20;;;15.40;99.90;;;;;;5033823;28;20500;-72
2022/10/25 03:26:04;;;;;;;16.88;4.78;;;15.40;99.90;;;;;;5034083;28;20025;-72
2022/10/25 03:28:30;;;;;;;16.65;4.57;;;15.40;99.90;;;;;;5033580;28;20128;-71
2022/10/25 03:30:57;;;;;;;14.05;3.83;;;15.30;99.90;;;;;;5033954;28;20050;-71
2022/10/25 03:33:23;;;;;;;19.15;4.55;;;15.40;99.90;;;;;;5033583;28;20075;-71
2022/10/25 03:35:51;;;;;;;12.27;3.95;;;15.40;99.90;;;;;;5033704;28;20025;-72
2022/10/25 03:38:16;;;;;;;12.88;4.95;;;15.40;99.90;;;;;;5033623;28;20075;-71
2022/10/25 03:40:42;;;;;;;9.90;3.45;;;15.40;99.90;;;;;;5033929;28;20025;-72
2022/10/25 03:43:08;;;;;;;12.23;4.75;;;15.40;99.90;;;;;;5033552;28;20068;-72
2022/10/25 03:45:33;;;;;;;12.32;3.80;;;15.40;99.90;;;;;;5033579;28;20108;-72
2022/10/25 03:47:59;;;;;;;15.23;3.75;;;15.40;99.90;;;;;;5033506;28;20135;-72
2022/10/25 03:50:25;;;;;;;17.13;4.53;;;15.30;99.90;;;;;;5033672;28;20045;-72
2022/10/25 03:52:50;;;;;;;14.95;4.45;;;15.30;99.90;;;;;;5033395;28;20530;-72
2022/10/25 03:55:16;;;;;;;13.65;4.30;;;15.30;99.90;;;;;;5033297;28;20018;-72
2022/10/25 03:57:41;;;;;;;14.43;4.35;;;15.30;99.90;;;;;;5033652;28;20038;-72
2022/10/25 04:00:08;;;;;;;18.85;4.78;;;15.40;99.90;;;;;;5033352;28;20052;-72
2022/10/25 04:02:33;;;;;;;13.05;4.82;;;15.30;99.90;;;;;;5033580;28;20025;-72
2022/10/25 04:04:59;;;;;;;16.52;4.78;;;15.30;99.90;;;;;;5033482;28;20055;-72
2022/10/25 04:07:24;;;;;;;16.65;4.63;;;15.40;99.90;;;;;;5033070;28;20473;-72
2022/10/25 04:09:50;;;;;;;11.90;3.70;;;15.30;99.90;;;;;;5033193;28;20025;-72
2022/10/25 04:12:16;;;;;;;13.23;5.22;;;15.40;99.90;;;;;;5033380;28;20034;-72
2022/10/25 04:14:41;;;;;;;18.75;4.70;;;15.40;99.90;;;;;;5034963;28;20469;-70
2022/10/25 04:17:07;;;;;;;12.35;3.72;;;15.40;99.90;;;;;;5034881;28;20044;-72
2022/10/25 04:19:32;;;;;;;13.45;4.35;;;15.40;99.90;;;;;;5033260;28;20083;-72
2022/10/25 04:22:01;;;;;;;11.90;4.05;;;15.40;99.90;;;;;;5033080;28;20033;-72
2022/10/25 04:24:26;;;;;;;19.38;5.03;;;15.40;99.90;;;;;;5033499;28;20026;-72
2022/10/25 04:26:52;;;;;;;12.32;3.63;;;15.40;99.90;;;;;;5033088;28;20036;-72
2022/10/25 04:29:17;;;;;;;11.13;3.33;;;15.40;99.90;;;;;;5032755;28;20065;-72
2022/10/25 04:31:43;;;;;;;15.88;3.88;;;15.40;99.90;;;;;;5033117;28;20432;-72
2022/10/25 04:34:09;;;;;;;11.45;3.60;;;15.40;99.90;;;;;;5033232;28;20022;-71
2022/10/25 04:36:34;;;;;;;12.55;3.20;;;15.40;99.90;;;;;;5033249;28;20025;-71
2022/10/25 04:39:00;;;;;;;13.38;3.92;;;15.40;99.90;;;;;;5033030;28;20067;-71
2022/10/25 04:41:26;;;;;;;10.27;3.20;;;15.40;99.90;;;;;;5033285;28;20034;-71
2022/10/25 04:43:51;;;;;;;11.05;3.67;;;15.40;99.90;;;;;;5032648;28;20053;-72
2022/10/25 04:46:17;;;;;;;10.30;3.40;;;15.40;99.90;;;;;;5032909;28;20029;-71
2022/10/25 04:48:43;;;;;;;11.63;3.38;;;15.40;99.90;;;;;;5033008;28;20022;-72
2022/10/25 04:51:10;;;;;;;15.75;4.78;;;15.40;99.90;;;;;;5032786;28;20124;-71
2022/10/25 04:53:36;;;;;;;10.45;3.50;;;15.40;99.90;;;;;;5032834;28;20114;-71
2022/10/25 04:56:11;;;;;;;18.73;4.15;;;15.30;99.90;;;;;;5032866;28;20477;-72
2022/10/25 04:58:37;;;;;;;15.77;3.33;;;15.30;99.90;;;;;;5032982;28;20026;-72
2022/10/25 05:01:07;;;;;;;14.00;4.03;;;15.30;99.90;;;;;;5032977;28;20096;-71
2022/10/25 05:03:33;;;;;;;9.15;3.65;;;15.30;99.90;;;;;;5032852;28;20167;-71
2022/10/25 05:06:19;;;;;;;14.85;3.92;;;15.30;99.90;;;;;;5033063;28;20028;-72
2022/10/25 05:08:50;;;;;;;11.15;3.67;;;15.30;99.90;;;;;;5032594;28;20028;-72
2022/10/25 05:11:18;;;;;;;12.00;3.50;;;15.40;99.90;;;;;;5040486;28;20048;-71
2022/10/25 05:13:45;;;;;;;20.05;5.35;;;15.40;99.90;;;;;;5034616;28;20033;-71
2022/10/25 05:16:19;;;;;;;12.77;4.18;;;15.40;99.90;;;;;;5032937;28;20034;-72
2022/10/25 05:18:45;;;;;;;10.57;4.00;;;15.40;99.90;;;;;;5035488;28;20029;-72
2022/10/25 05:21:11;;;;;;;9.88;4.20;;;15.30;99.90;;;;;;5035885;28;20388;-71
2022/10/25 05:23:37;;;;;;;16.58;4.80;;;15.30;99.90;;;;;;5036456;28;20041;-73
2022/10/25 05:26:12;;;;;;;10.68;4.35;;;15.30;99.90;;;;;;5036425;28;20473;-72
2022/10/25 05:28:39;;;;;;;15.52;5.05;;;15.30;99.90;;;;;;5036077;28;20045;-71
2022/10/25 05:31:06;;;;;;;14.35;3.58;;;15.30;99.90;;;;;;5035923;28;20042;-71
2022/10/25 05:33:32;;;;;;;13.57;4.40;;;15.20;99.90;;;;;;5035905;28;20472;-71
2022/10/25 05:35:59;;;;;;;9.80;3.47;;;15.20;99.90;;;;;;5036344;28;20025;-71
2022/10/25 05:38:25;;;;;;;11.02;4.10;;;15.20;99.90;;;;;;5035966;28;20025;-72
2022/10/25 05:40:55;;;;;;;13.57;3.83;;;15.20;99.90;;;;;;5035520;28;20369;-73
2022/10/25 05:43:21;;;;;;;7.40;3.15;;;15.20;99.90;;;;;;5035317;28;20021;-73
2022/10/25 05:45:46;;;;;;;10.15;3.20;;;15.20;99.90;;;;;;5035699;28;20036;-71
2022/10/25 05:48:12;;;;;;;12.77;3.63;;;15.20;99.90;;;;;;5036036;28;20033;-72
2022/10/25 05:50:38;;;;;;;9.20;2.72;;;15.20;99.90;;;;;;5035543;28;20030;-72
2022/10/25 05:53:04;;;;;;;11.35;2.92;;;15.20;99.90;;;;;;5035562;28;20092;-75
2022/10/25 05:55:29;;;;;;;9.50;2.85;;;15.20;99.90;;;;;;5035580;28;20120;-76
2022/10/25 05:57:55;;;;;;;11.88;2.40;;;15.20;99.90;;;;;;5035707;28;20145;-75
2022/10/25 06:00:20;;;;;;;11.07;2.60;;;15.20;99.90;;;;;;5035752;28;20441;-76
2022/10/25 06:02:46;;;;;;;11.73;3.10;;;15.10;99.90;;;;;;5035893;28;20032;-76
2022/10/25 06:05:11;;;;;;;7.50;2.92;;;15.10;99.90;;;;;;5036068;28;20021;-74
2022/10/25 06:07:37;;;;;;;8.40;3.15;;;15.10;99.90;;;;;;5055903;28;20025;-80
2022/10/25 06:10:03;;;;;;;11.77;2.78;;;15.10;99.90;;;;;;5040092;28;20075;-80
2022/10/25 06:12:29;;;;;;;8.43;2.83;;;15.10;99.90;;;;;;5035266;28;20064;-80
2022/10/25 06:14:54;;;;;;;6.80;2.50;;;15.10;99.90;;;;;;5035546;28;20029;-79
2022/10/25 06:17:20;;;;;;;6.97;3.33;;;15.10;99.90;;;;;;5035672;28;20499;-79
2022/10/25 06:19:45;;;;;;;10.68;2.88;;;15.10;99.90;;;;;;5034986;28;20111;-76
2022/10/25 06:22:11;;;;;;;13.10;3.70;;;15.10;99.90;;;;;;5035810;28;20607;-76
2022/10/25 06:24:36;;;;;;;14.35;3.72;;;15.10;99.90;;;;;;5039265;28;20030;-76
2022/10/25 06:27:02;;;;;;;9.65;3.47;;;15.10;99.90;;;;;;5039134;28;20104;-77
2022/10/25 06:29:28;;;;;;;8.70;3.50;;;15.10;99.90;;;;;;5038766;28;20076;-77
2022/10/25 06:31:53;;;;;;;9.02;3.60;;;15.00;99.90;;;;;;5034368;28;20033;-76
2022/10/25 06:34:19;;;;;;;9.35;3.20;;;15.00;99.90;;;;;;5035346;28;20056;-76
2022/10/25 06:36:45;;;;;;;12.73;4.05;;;15.00;99.90;;;;;;5034921;28;20080;-77
2022/10/25 06:39:10;;;;;;;10.35;3.30;;;15.00;99.90;;;;;;5034932;28;20033;-77
2022/10/25 06:41:36;;;;;;;7.75;3.42;;;15.00;99.90;;;;;;5036288;28;20044;-77
2022/10/25 06:44:02;;;;;;;6.30;3.30;;;15.00;99.90;;;;;;5034887;28;20024;-78
2022/10/25 06:46:32;;;;;;;10.95;4.45;;;15.00;99.90;;;;;;5034519;28;20034;-77
2022/10/25 06:48:59;;;;;;;8.95;3.58;;;15.00;99.90;;;;;;5035224;28;20033;-76
2022/10/25 06:51:27;;;;;;;11.05;3.47;;;15.00;99.90;;;;;;5034805;28;20030;-76
2022/10/25 06:53:56;;;;;;;13.85;4.05;;;15.00;99.90;;;;;;5034749;28;20109;-77
2022/10/25 06:56:22;;;;;;;10.52;2.75;;;15.00;99.90;;;;;;5034695;28;20480;-76
2022/10/25 06:58:49;;;;;;;8.07;3.53;;;15.00;99.90;;;;;;5035074;28;20104;-76
2022/10/25 07:01:16;;;;;;;12.95;3.47;;;15.00;99.90;;;;;;5034632;28;20529;-75
2022/10/25 07:03:42;;;;;;;12.35;3.50;;;15.00;99.90;;;;;;5036729;28;20032;-78
2022/10/25 07:06:21;;;;;;;11.25;3.38;;;15.00;99.90;;;;;;5035523;28;20021;-76
2022/10/25 07:08:46;;;;;;;9.05;3.63;;;15.10;99.90;;;;;;5034460;28;20459;-76
2022/10/25 07:11:14;;;;;;;8.50;3.58;;;15.10;99.90;;;;;;5034194;28;20072;-77
2022/10/25 07:13:40;;;;;;;14.50;3.53;;;15.00;99.90;;;;;;5034389;28;20029;-75
2022/10/25 07:16:09;;;;;;;9.63;3.60;;;15.00;99.90;;;;;;5034402;28;20030;-75
2022/10/25 07:18:36;;;;;;;9.57;3.50;;;15.00;99.90;;;;;;5034341;28;20071;-75
2022/10/25 07:21:05;;;;;;;8.68;3.42;;;15.10;99.90;;;;;;5034270;28;20032;-75
2022/10/25 07:23:31;;;;;;;10.48;3.60;;;15.10;99.90;;;;;;5033748;28;20028;-75
2022/10/25 07:25:57;;;;;;;10.93;3.53;;;15.00;99.90;;;;;;5035057;28;20028;-76
2022/10/25 07:28:24;;;;;;;9.40;3.30;;;15.00;99.90;;;;;;5033893;28;20053;-76
2022/10/25 07:30:49;;;;;;;9.07;3.63;;;15.00;99.90;;;;;;5034126;28;20080;-75
2022/10/25 07:33:17;;;;;;;8.35;4.38;;;15.10;99.90;;;;;;5033882;28;20022;-76
2022/10/25 07:35:47;;;;;;;10.23;4.07;;;15.10;99.90;;;;;;5034114;28;20366;-75
2022/10/25 07:38:13;;;;;;;7.57;3.53;;;15.10;99.90;;;;;;5033536;28;20071;-75
2022/10/25 07:40:39;;;;;;;10.88;3.90;;;15.20;99.90;;;;;;5033434;28;20030;-76
2022/10/25 07:43:05;;;;;;;11.50;4.25;;;15.20;99.90;;;;;;5034043;28;20053;-77
2022/10/25 07:45:31;;;;;;;11.82;4.10;;;15.20;99.90;;;;;;5034261;28;20076;-77
2022/10/25 07:47:57;;;;;;;13.27;4.00;;;15.20;99.90;;;;;;5034001;28;20543;-79
2022/10/25 07:50:22;;;;;;;13.80;4.47;;;15.30;99.90;;;;;;5039975;28;20381;-79
2022/10/25 07:52:48;;;;;;;7.13;3.80;;;15.30;99.90;;;;;;5041220;28;20051;-78
2022/10/25 07:55:14;;;;;;;9.65;4.68;;;15.20;99.90;;;;;;5044893;28;20063;-78
2022/10/25 07:57:39;;;;;;;10.75;3.72;;;15.20;99.90;;;;;;5037736;28;20052;-77
2022/10/25 08:00:08;;;;;;;12.27;5.30;;;15.20;99.90;;;;;;5061434;28;20013;-75
2022/10/25 08:02:33;;;;;;;8.32;4.43;;;15.20;99.90;;;;;;5050856;28;20029;-76
2022/10/25 08:04:59;;;;;;;9.20;3.70;;;15.20;99.90;;;;;;5043935;28;20030;-77
2022/10/25 08:07:25;;;;;;;7.85;4.78;;;15.20;99.90;;;;;;5037889;28;20044;-77
2022/10/25 08:09:50;;;;;;;10.50;4.38;;;15.20;99.90;;;;;;5041401;28;20416;-74
2022/10/25 08:12:16;;;;;;;9.20;4.45;;;15.20;99.90;;;;;;5044471;28;20545;-75
2022/10/25 08:14:42;;;;;;;13.93;4.60;;;15.20;99.90;;;;;;5033442;28;20354;-76
2022/10/25 08:17:07;;;;;;;8.43;4.47;;;15.20;99.90;;;;;;5048491;28;20026;-76
2022/10/25 08:19:33;;;;;;;11.00;4.82;;;15.20;99.90;;;;;;5033668;28;20551;-76
2022/10/25 08:21:58;;;;;;;11.00;5.18;;;15.20;99.90;;;;;;5047040;28;20029;-75
2022/10/25 08:24:24;;;;;;;17.13;6.00;;;15.20;99.90;;;;;;5041991;28;20020;-75
2022/10/25 08:26:50;;;;;;;13.70;5.05;;;15.30;99.90;;;;;;5040471;28;20033;-73
2022/10/25 08:29:16;;;;;;;11.27;5.38;;;15.20;99.90;;;;;;5043273;28;20060;-75
2022/10/25 08:31:41;;;;;;;10.25;5.53;;;15.30;99.90;;;;;;5039076;28;20076;-76
2022/10/25 08:34:07;;;;;;;11.32;6.13;;;15.30;99.90;;;;;;5032061;28;20029;-76
2022/10/25 08:36:33;;;;;;;11.63;5.72;;;15.30;99.90;;;;;;5033005;28;20539;-75
2022/10/25 08:39:01;;;;;;;15.57;6.38;;;15.40;99.90;;;;;;5032592;28;20026;-74
2022/10/25 08:41:44;;;;;;;10.32;6.03;;;15.40;99.90;;;;;;5033296;28;20021;-74
2022/10/25 08:44:33;;;;;;;12.65;6.78;;;15.50;99.90;;;;;;5032576;28;20082;-74
2022/10/25 08:47:05;;;;;;;15.88;8.02;;;15.60;99.90;;;;;;5033159;28;20130;-74
2022/10/25 08:49:46;;;;;;;12.55;7.40;;;15.50;99.90;;;;;;5032980;28;20025;-74
2022/10/25 08:52:21;;;;;;;18.00;9.52;;;15.60;99.90;;;;;;5033202;28;20176;-75
2022/10/25 08:54:47;;;;;;;13.18;9.05;;;15.60;99.90;;;;;;5037016;28;20036;-74
2022/10/25 08:57:17;;;;;;;24.67;10.82;;;15.50;99.90;;;;;;5044588;28;20026;-73
2022/10/25 08:59:49;;;;;;;15.75;9.50;;;15.50;99.90;;;;;;5040089;28;20123;-74
2022/10/25 09:02:45;;;;;;;11.77;8.65;;;15.50;99.90;;;;;;5036758;28;20026;-74
2022/10/25 09:05:50;;;;;;;19.92;10.75;;;15.40;99.90;;;;;;5036496;28;20393;-74
2022/10/25 09:08:41;;;;;;;16.73;9.70;;;15.40;99.90;;;;;;5035113;28;20034;-74
2022/10/25 09:11:43;;;;;;;18.25;9.75;;;15.50;99.90;;;;;;5036785;28;20112;-74
2022/10/25 09:14:15;;;;;;;19.85;10.63;;;15.50;99.90;;;;;;5036275;28;20041;-74
2022/10/25 09:16:51;;;;;;;16.58;9.15;;;15.50;99.90;;;;;;5036658;28;20025;-74
2022/10/25 09:19:32;;;;;;;17.33;9.57;;;15.50;99.90;;;;;;5036337;28;20117;-75
2022/10/25 09:22:25;;;;;;;18.70;9.02;;;15.50;99.90;;;;;;5036612;28;20026;-73
2022/10/25 09:25:06;;;;;;;14.75;9.27;;;15.60;99.90;;;;;;5026731;28;20034;-74
2022/10/25 09:27:33;;;;;;;22.05;10.23;;;15.60;99.90;;;;;;5036068;28;20432;-74
2022/10/25 09:30:09;;;;;;;12.82;9.10;;;15.60;99.90;;;;;;5035984;28;20103;-74
2022/10/25 09:32:52;;;;;;;18.70;10.65;;;15.60;99.90;;;;;;5036243;28;20052;-74
2022/10/25 09:35:25;;;;;;;15.20;8.85;;;15.70;99.90;;;;;;5035790;28;20025;-75
2022/10/25 09:37:58;;;;;;;13.73;10.30;;;15.70;99.90;;;;;;5035869;28;20362;-75
2022/10/25 09:40:26;;;;;;;;;;;15.80;99.90;;;;;;5036673;28;20017;-75
2022/10/25 09:43:00;;;;;;;13.60;10.02;;;15.80;99.90;;;;;;5036153;28;19975;-74
2022/10/25 09:45:33;;;;;;;14.40;9.80;;;15.70;99.90;;;;;;5035799;28;20036;-74
2022/10/25 09:48:11;;;;;;;18.70;10.45;;;15.80;99.90;;;;;;5035832;28;20030;-74
2022/10/25 09:51:03;;;;;;;15.60;10.15;;;15.80;99.90;;;;;;5036087;28;20041;-72
2022/10/25 09:53:31;;;;;;;15.90;9.98;;;15.80;99.90;;;;;;5042547;28;20443;-74
2022/10/25 09:56:03;;;;;;;15.85;9.63;;;15.90;99.90;;;;;;5035432;28;20036;-75
2022/10/25 09:58:36;;;;;;;14.57;9.47;;;16.00;99.90;;;;;;5035806;28;20044;-75
2022/10/25 10:01:11;;;;;;;13.82;9.60;;;16.00;99.90;;;;;;5035499;28;20274;-74
2022/10/25 10:03:40;;;;;;;13.57;8.50;;;16.00;99.90;;;;;;5035625;28;20026;-74
2022/10/25 10:06:34;;;;;;;16.58;9.32;;;16.00;99.90;;;;;;5035827;28;20121;-74
2022/10/25 10:09:05;;;;;;;14.43;8.40;;;16.10;99.90;;;;;;5035409;28;20479;-74
2022/10/25 10:11:32;;;;;;;17.13;9.65;;;16.10;99.90;;;;;;5035592;28;20033;-75
2022/10/25 10:14:04;;;;;;;20.30;9.88;;;16.20;99.90;;;;;;5034069;28;20029;-74
2022/10/25 10:16:40;;;;;;;14.32;8.77;;;16.10;99.90;;;;;;5035545;28;20029;-74
2022/10/25 10:19:14;;;;;;;14.10;8.52;;;16.10;99.90;;;;;;5035402;28;20037;-75
2022/10/25 10:21:51;;;;;;;18.05;9.70;;;16.10;99.90;;;;;;5035051;28;20446;-74
2022/10/25 10:24:32;;;;;;;18.10;10.02;;;16.10;99.90;;;;;;5034922;28;20519;-74
2022/10/25 10:27:00;;;;;;;11.02;8.00;;;16.10;99.90;;;;;;5035323;28;20068;-74
2022/10/25 10:29:46;;;;;;;13.70;9.00;;;16.20;99.90;;;;;;5034701;28;20452;-74
2022/10/25 10:32:28;;;;;;;14.98;7.95;;;16.20;99.90;;;;;;5035198;28;20088;-75
2022/10/25 10:34:56;;;;;;;11.98;7.35;;;16.20;99.90;;;;;;5034912;28;20021;-75
2022/10/25 10:37:27;;;;;;;10.55;7.72;;;16.20;99.90;;;;;;5034742;28;20021;-75
2022/10/25 10:40:00;;;;;;;16.63;8.00;;;16.20;99.90;;;;;;5034715;28;20397;-75
2022/10/25 10:42:35;;;;;;;13.30;8.05;;;16.30;99.90;;;;;;5034644;28;20473;-75
2022/10/25 10:45:07;;;;;;;13.57;8.80;;;16.30;99.90;;;;;;5034809;28;20025;-75
2022/10/25 10:47:41;;;;;;;12.93;7.93;;;16.30;99.90;;;;;;5036050;28;20021;-75
2022/10/25 10:50:24;;;;;;;12.90;8.85;;;16.30;99.90;;;;;;5038663;28;20029;-75
2022/10/25 10:53:01;;;;;;;17.20;10.20;;;16.40;99.90;;;;;;5034763;28;20045;-75
2022/10/25 10:55:28;;;;;;;16.52;9.25;;;16.40;99.90;;;;;;5034399;28;20070;-75
2022/10/25 10:57:59;;;;;;;12.68;7.85;;;16.30;99.90;;;;;;5034374;28;20454;-75
2022/10/25 11:00:27;;;;;;;14.35;6.85;;;16.40;99.90;;;;;;5034536;28;20048;-76
2022/10/25 11:02:53;;;;;;;13.40;7.53;;;16.50;99.90;;;;;;5034245;28;20057;-75
2022/10/25 11:05:30;;;;;;;12.80;7.20;;;16.60;99.90;;;;;;5034526;28;20426;-75
2022/10/25 11:07:57;;;;;;;13.82;6.93;;;16.60;99.90;;;;;;5034491;28;20076;-76
2022/10/25 11:10:26;;;;;;;13.85;6.80;;;16.50;99.90;;;;;;5033822;28;20021;-75
2022/10/25 11:13:07;;;;;;;16.92;7.35;;;16.50;99.90;;;;;;5034476;28;20041;-75
2022/10/25 11:15:47;;;;;;;10.30;6.32;;;16.50;99.90;;;;;;5033800;28;20032;-75
2022/10/25 11:18:13;;;;;;;12.35;6.00;;;16.60;99.90;;;;;;5033914;28;20496;-75
2022/10/25 11:21:05;;;;;;;10.18;5.97;;;16.50;99.90;;;;;;5034195;28;20052;-75
2022/10/25 11:24:08;;;;;;;11.35;6.20;;;16.60;99.90;;;;;;5034155;28;20021;-75
2022/10/25 11:27:16;;;;;;;12.88;5.53;;;16.70;99.90;;;;;;5034237;28;20071;-75
2022/10/25 11:30:00;;;;;;;10.70;6.03;;;16.80;99.90;;;;;;5030532;28;20037;-75
2022/10/25 11:33:01;;;;;;;14.93;5.93;;;16.90;99.70;;;;;;5033772;28;20037;-74
2022/10/25 11:35:35;;;;;;;11.70;5.13;;;16.90;99.50;;;;;;5014236;28;20033;-74
2022/10/25 11:38:12;;;;;;;13.48;5.43;;;16.90;99.60;;;;;;5013995;28;20076;-75
2022/10/25 11:40:42;;;;;;;13.57;5.78;;;17.00;99.60;;;;;;5014468;28;20026;-74
2022/10/25 11:43:35;;;;;;;12.80;5.53;;;17.20;99.60;;;;;;5017716;28;20081;-73
2022/10/25 11:46:24;;;;;;;11.77;5.90;;;17.40;99.40;;;;;;5022407;28;20032;-75
2022/10/25 11:49:24;;;;;;;12.98;4.80;;;17.50;98.90;;;;;;5014011;28;20466;-75
2022/10/25 11:52:22;;;;;;;9.23;4.47;;;17.50;98.30;;;;;;5014034;28;20409;-76
2022/10/25 11:55:00;;;;;;;9.93;3.25;;;17.60;97.90;;;;;;5013494;28;20121;-75
2022/10/25 11:57:26;;;;;;;11.93;3.40;;;17.70;97.40;;;;;;5013668;28;20478;-75
2022/10/25 12:00:15;;;;;;;7.18;2.80;;;17.80;97.20;;;;;;5013673;28;20032;-75
2022/10/25 12:02:58;;;;;;;8.70;2.92;;;17.90;96.90;;;;;;5013687;28;20026;-75
2022/10/25 12:05:47;;;;;;;10.07;3.50;;;18.00;96.50;;;;;;5013261;28;20508;-75
2022/10/25 12:08:18;;;;;;;7.95;3.17;;;18.10;96.50;;;;;;5013371;28;20026;-75
2022/10/25 12:10:59;;;;;;;8.95;3.72;;;18.20;96.10;;;;;;5013544;28;20116;-75
2022/10/25 12:13:32;;;;;;;7.68;3.80;;;18.30;96.10;;;;;;5013689;28;20033;-77
2022/10/25 12:15:58;;;;;;;8.32;3.60;;;18.30;95.80;;;;;;5021373;28;20055;-79
2022/10/25 12:19:07;;;;;;;9.88;3.70;;;18.40;96.10;;;;;;5041737;28;20033;-78
2022/10/25 12:21:56;;;;;;;9.35;3.08;;;18.40;96.00;;;;;;5017874;28;20056;-80
2022/10/25 12:24:40;;;;;;;8.85;3.40;;;18.50;96.40;;;;;;5032734;28;20036;-77
2022/10/25 12:27:07;;;;;;;9.50;3.50;;;18.80;96.40;;;;;;5040885;28;20064;-76
2022/10/25 12:29:37;;;;;;;6.88;3.33;;;18.90;95.80;;;;;;5049331;28;20068;-76
2022/10/25 12:32:12;;;;;;;7.40;2.60;;;18.90;95.50;;;;;;5046529;28;20040;-76
2022/10/25 12:34:45;;;;;;;7.00;3.47;;;19.00;95.20;;;;;;5055216;28;20113;-77
2022/10/25 12:37:25;;;;;;;7.07;2.42;;;19.00;94.80;;;;;;5048229;28;20380;-77
2022/10/25 12:39:51;;;;;;;8.88;2.45;;;19.00;94.70;;;;;;5041296;28;20025;-73
2022/10/25 12:42:19;;;;;;;9.57;2.53;;;19.00;94.50;;;;;;5045742;28;20029;-75
2022/10/25 12:45:08;;;;;;;7.15;2.40;;;19.10;94.50;;;;;;5043283;28;20036;-75
2022/10/25 12:47:55;;;;;;;6.15;2.60;;;19.00;94.40;;;;;;5043742;28;20481;-75
2022/10/25 12:50:29;;;;;;;8.80;3.03;;;18.90;94.40;;;;;;5036903;28;20432;-76
2022/10/25 12:53:31;;;;;;;9.70;3.00;;;18.80;94.50;;;;;;5042083;28;20065;-75
2022/10/25 12:56:29;;;;;;;6.47;2.90;;;18.60;94.50;;;;;;5037768;28;20056;-75
2022/10/25 12:58:57;;;;;;;6.05;2.92;;;18.50;94.80;;;;;;5037069;28;20495;-74
2022/10/25 13:01:38;;;;;;;10.57;3.50;;;18.40;95.00;;;;;;5035446;28;20040;-75
2022/10/25 13:04:45;;;;;;;8.20;3.35;;;18.40;95.30;;;;;;5036488;28;20571;-76